sensor_id;sensor_type;location;lat;lon;timestamp;P1;durP1;ratioP1;P2;durP2;ratioP2
7475;SDS011;3779;49.216;8.650;2024-02-16T00:01:21;7.93;;;5.50;;
7475;SDS011;3779;49.216;8.650;2024-02-16T00:04:09;4.53;;;3.87;;
7475;SDS011;3779;49.216;8.650;2024-02-16T00:06:55;8.47;;;5.63;;
7475;SDS011;3779;49.216;8.650;2024-02-16T00:09:40;8.07;;;6.37;;
7475;SDS011;3779;49.216;8.650;2024-02-16T00:12:26;6.33;;;4.90;;
7475;SDS011;3779;49.216;8.650;2024-02-16T00:15:12;5.80;;;5.10;;
7475;SDS011;3779;49.216;8.650;2024-02-16T00:18:08;4.10;;;3.67;;
7475;SDS011;3779;49.216;8.650;2024-02-16T00:20:54;7.17;;;5.80;;
7475;SDS011;3779;49.216;8.650;2024-02-16T00:23:39;3.33;;;2.80;;
7475;SDS011;3779;49.216;8.650;2024-02-16T00:26:25;5.00;;;4.03;;
7475;SDS011;3779;49.216;8.650;2024-02-16T00:29:11;6.10;;;4.87;;
7475;SDS011;3779;49.216;8.650;2024-02-16T00:31:57;4.90;;;4.30;;
7475;SDS011;3779;49.216;8.650;2024-02-16T00:34:44;6.47;;;5.10;;
7475;SDS011;3779;49.216;8.650;2024-02-16T00:37:30;4.57;;;4.10;;
7475;SDS011;3779;49.216;8.650;2024-02-16T00:40:16;4.00;;;3.53;;
7475;SDS011;3779;49.216;8.650;2024-02-16T00:43:03;3.03;;;2.50;;
7475;SDS011;3779;49.216;8.650;2024-02-16T00:45:49;2.63;;;2.37;;
7475;SDS011;3779;49.216;8.650;2024-02-16T00:48:35;2.63;;;2.43;;
7475;SDS011;3779;49.216;8.650;2024-02-16T00:51:21;2.37;;;2.17;;
7475;SDS011;3779;49.216;8.650;2024-02-16T00:54:08;2.67;;;2.47;;
7475;SDS011;3779;49.216;8.650;2024-02-16T00:56:54;3.03;;;2.33;;
7475;SDS011;3779;49.216;8.650;2024-02-16T00:59:40;2.50;;;2.30;;
7475;SDS011;3779;49.216;8.650;2024-02-16T01:05:14;3.10;;;2.73;;
7475;SDS011;3779;49.216;8.650;2024-02-16T01:08:04;3.57;;;2.20;;
7475;SDS011;3779;49.216;8.650;2024-02-16T01:10:51;2.33;;;2.10;;
7475;SDS011;3779;49.216;8.650;2024-02-16T01:13:39;2.77;;;2.40;;
7475;SDS011;3779;49.216;8.650;2024-02-16T01:16:48;3.40;;;2.60;;
7475;SDS011;3779;49.216;8.650;2024-02-16T01:19:46;3.83;;;2.47;;
7475;SDS011;3779;49.216;8.650;2024-02-16T01:22:51;3.27;;;2.30;;
7475;SDS011;3779;49.216;8.650;2024-02-16T01:25:44;2.20;;;2.00;;
7475;SDS011;3779;49.216;8.650;2024-02-16T01:28:30;5.63;;;2.33;;
7475;SDS011;3779;49.216;8.650;2024-02-16T01:31:16;2.80;;;2.50;;
7475;SDS011;3779;49.216;8.650;2024-02-16T01:34:02;2.20;;;2.00;;
7475;SDS011;3779;49.216;8.650;2024-02-16T01:36:49;2.97;;;2.38;;
7475;SDS011;3779;49.216;8.650;2024-02-16T01:39:35;3.37;;;2.60;;
7475;SDS011;3779;49.216;8.650;2024-02-16T01:42:20;2.40;;;2.17;;
7475;SDS011;3779;49.216;8.650;2024-02-16T01:45:07;2.53;;;2.30;;
7475;SDS011;3779;49.216;8.650;2024-02-16T01:47:56;2.63;;;2.30;;
7475;SDS011;3779;49.216;8.650;2024-02-16T01:50:43;3.90;;;2.53;;
7475;SDS011;3779;49.216;8.650;2024-02-16T01:53:29;3.80;;;2.10;;
7475;SDS011;3779;49.216;8.650;2024-02-16T01:56:16;4.77;;;2.73;;
7475;SDS011;3779;49.216;8.650;2024-02-16T01:59:02;3.23;;;2.53;;
7475;SDS011;3779;49.216;8.650;2024-02-16T05:33:37;2.10;;;1.90;;
7475;SDS011;3779;49.216;8.650;2024-02-16T05:36:23;2.88;;;2.20;;
7475;SDS011;3779;49.216;8.650;2024-02-16T05:39:12;2.80;;;2.40;;
7475;SDS011;3779;49.216;8.650;2024-02-16T05:42:11;2.20;;;2.00;;
7475;SDS011;3779;49.216;8.650;2024-02-16T05:44:57;1.87;;;1.70;;
7475;SDS011;3779;49.216;8.650;2024-02-16T05:47:44;2.03;;;1.80;;
7475;SDS011;3779;49.216;8.650;2024-02-16T05:50:31;3.63;;;2.90;;
7475;SDS011;3779;49.216;8.650;2024-02-16T05:53:17;2.90;;;2.70;;
7475;SDS011;3779;49.216;8.650;2024-02-16T05:56:04;2.30;;;2.10;;
7475;SDS011;3779;49.216;8.650;2024-02-16T05:58:50;2.27;;;2.07;;
7475;SDS011;3779;49.216;8.650;2024-02-16T06:01:36;3.77;;;3.00;;
7475;SDS011;3779;49.216;8.650;2024-02-16T06:04:22;1.77;;;1.63;;
7475;SDS011;3779;49.216;8.650;2024-02-16T06:07:08;2.60;;;2.40;;
7475;SDS011;3779;49.216;8.650;2024-02-16T06:09:57;2.40;;;2.20;;
7475;SDS011;3779;49.216;8.650;2024-02-16T06:12:42;2.17;;;1.97;;
7475;SDS011;3779;49.216;8.650;2024-02-16T06:15:28;2.90;;;2.00;;
7475;SDS011;3779;49.216;8.650;2024-02-16T06:18:14;3.07;;;2.50;;
7475;SDS011;3779;49.216;8.650;2024-02-16T06:21:00;3.13;;;2.23;;
7475;SDS011;3779;49.216;8.650;2024-02-16T06:23:46;3.03;;;1.90;;
7475;SDS011;3779;49.216;8.650;2024-02-16T06:26:32;3.05;;;2.20;;
7475;SDS011;3779;49.216;8.650;2024-02-16T06:29:17;1.93;;;1.70;;
7475;SDS011;3779;49.216;8.650;2024-02-16T06:32:09;1.83;;;1.60;;
7475;SDS011;3779;49.216;8.650;2024-02-16T06:35:05;4.53;;;2.70;;
7475;SDS011;3779;49.216;8.650;2024-02-16T06:37:53;3.93;;;2.13;;
7475;SDS011;3779;49.216;8.650;2024-02-16T06:40:40;3.13;;;2.77;;
7475;SDS011;3779;49.216;8.650;2024-02-16T06:43:26;1.83;;;1.73;;
7475;SDS011;3779;49.216;8.650;2024-02-16T06:46:14;2.40;;;2.20;;
7475;SDS011;3779;49.216;8.650;2024-02-16T06:49:01;2.27;;;2.07;;
7475;SDS011;3779;49.216;8.650;2024-02-16T06:58:12;1.77;;;1.67;;
7475;SDS011;3779;49.216;8.650;2024-02-16T07:00:59;2.20;;;2.03;;
7475;SDS011;3779;49.216;8.650;2024-02-16T07:06:38;1.93;;;1.73;;
7475;SDS011;3779;49.216;8.650;2024-02-16T07:09:23;2.10;;;1.90;;
7475;SDS011;3779;49.216;8.650;2024-02-16T07:12:13;2.03;;;1.90;;
7475;SDS011;3779;49.216;8.650;2024-02-16T07:27:40;2.40;;;2.20;;
7475;SDS011;3779;49.216;8.650;2024-02-16T07:33:16;6.50;;;3.53;;
7475;SDS011;3779;49.216;8.650;2024-02-16T07:41:57;3.87;;;2.77;;
7475;SDS011;3779;49.216;8.650;2024-02-16T07:50:43;2.10;;;1.93;;
7475;SDS011;3779;49.216;8.650;2024-02-16T07:53:29;3.33;;;2.97;;
7475;SDS011;3779;49.216;8.650;2024-02-16T07:56:16;4.73;;;2.77;;
7475;SDS011;3779;49.216;8.650;2024-02-16T07:59:03;3.80;;;2.50;;
7475;SDS011;3779;49.216;8.650;2024-02-16T08:04:38;3.13;;;2.83;;
7475;SDS011;3779;49.216;8.650;2024-02-16T08:07:47;2.10;;;1.97;;
7475;SDS011;3779;49.216;8.650;2024-02-16T08:10:38;3.47;;;2.67;;
7475;SDS011;3779;49.216;8.650;2024-02-16T08:13:31;5.20;;;2.60;;
7475;SDS011;3779;49.216;8.650;2024-02-16T08:26:00;2.87;;;2.53;;
7475;SDS011;3779;49.216;8.650;2024-02-16T08:28:46;3.10;;;2.40;;
7475;SDS011;3779;49.216;8.650;2024-02-16T08:34:28;2.80;;;2.60;;
7475;SDS011;3779;49.216;8.650;2024-02-16T08:37:13;3.30;;;3.00;;
7475;SDS011;3779;49.216;8.650;2024-02-16T08:46:11;2.60;;;2.40;;
7475;SDS011;3779;49.216;8.650;2024-02-16T09:05:14;2.33;;;2.13;;
7475;SDS011;3779;49.216;8.650;2024-02-16T09:08:38;5.03;;;3.17;;
7475;SDS011;3779;49.216;8.650;2024-02-16T09:11:26;3.33;;;2.90;;
7475;SDS011;3779;49.216;8.650;2024-02-16T09:17:36;4.33;;;2.93;;
7475;SDS011;3779;49.216;8.650;2024-02-16T09:24:20;4.03;;;3.37;;
7475;SDS011;3779;49.216;8.650;2024-02-16T09:33:11;4.97;;;3.00;;
7475;SDS011;3779;49.216;8.650;2024-02-16T09:48:19;4.40;;;3.73;;
7475;SDS011;3779;49.216;8.650;2024-02-16T09:51:06;2.53;;;2.20;;
7475;SDS011;3779;49.216;8.650;2024-02-16T09:53:53;3.07;;;2.20;;
7475;SDS011;3779;49.216;8.650;2024-02-16T09:56:42;2.60;;;2.30;;
7475;SDS011;3779;49.216;8.650;2024-02-16T09:59:31;4.20;;;3.23;;
7475;SDS011;3779;49.216;8.650;2024-02-16T10:02:19;6.97;;;3.47;;
7475;SDS011;3779;49.216;8.650;2024-02-16T10:10:42;5.03;;;2.70;;
7475;SDS011;3779;49.216;8.650;2024-02-16T10:16:30;3.13;;;2.40;;
7475;SDS011;3779;49.216;8.650;2024-02-16T10:19:42;5.57;;;3.40;;
7475;SDS011;3779;49.216;8.650;2024-02-16T10:22:40;2.73;;;2.00;;
7475;SDS011;3779;49.216;8.650;2024-02-16T10:25:29;3.43;;;2.90;;
7475;SDS011;3779;49.216;8.650;2024-02-16T10:32:40;3.53;;;2.73;;
7475;SDS011;3779;49.216;8.650;2024-02-16T10:49:01;1.90;;;1.70;;
7475;SDS011;3779;49.216;8.650;2024-02-16T10:52:15;2.30;;;2.10;;
7475;SDS011;3779;49.216;8.650;2024-02-16T10:58:07;2.00;;;1.80;;
7475;SDS011;3779;49.216;8.650;2024-02-16T11:04:20;2.80;;;1.90;;
7475;SDS011;3779;49.216;8.650;2024-02-16T11:07:14;2.10;;;1.90;;
7475;SDS011;3779;49.216;8.650;2024-02-16T11:10:01;2.07;;;1.70;;
7475;SDS011;3779;49.216;8.650;2024-02-16T11:12:51;1.83;;;1.50;;
7475;SDS011;3779;49.216;8.650;2024-02-16T11:15:42;2.73;;;2.50;;
7475;SDS011;3779;49.216;8.650;2024-02-16T11:18:42;2.43;;;1.80;;
7475;SDS011;3779;49.216;8.650;2024-02-16T11:21:35;3.20;;;1.77;;
7475;SDS011;3779;49.216;8.650;2024-02-16T11:24:27;2.93;;;1.80;;
7475;SDS011;3779;49.216;8.650;2024-02-16T11:27:20;1.83;;;1.60;;
7475;SDS011;3779;49.216;8.650;2024-02-16T11:30:09;2.27;;;1.60;;
7475;SDS011;3779;49.216;8.650;2024-02-16T11:32:57;2.43;;;2.03;;
7475;SDS011;3779;49.216;8.650;2024-02-16T11:35:52;2.50;;;1.90;;
7475;SDS011;3779;49.216;8.650;2024-02-16T11:38:40;4.30;;;2.00;;
7475;SDS011;3779;49.216;8.650;2024-02-16T11:41:46;2.40;;;2.00;;
7475;SDS011;3779;49.216;8.650;2024-02-16T11:44:33;3.30;;;1.70;;
7475;SDS011;3779;49.216;8.650;2024-02-16T11:47:24;3.03;;;1.73;;
7475;SDS011;3779;49.216;8.650;2024-02-16T11:50:10;1.67;;;1.57;;
7475;SDS011;3779;49.216;8.650;2024-02-16T11:52:56;2.17;;;1.97;;
7475;SDS011;3779;49.216;8.650;2024-02-16T11:55:46;1.60;;;1.50;;
7475;SDS011;3779;49.216;8.650;2024-02-16T11:58:33;1.90;;;1.70;;
7475;SDS011;3779;49.216;8.650;2024-02-16T12:01:19;1.73;;;1.63;;
7475;SDS011;3779;49.216;8.650;2024-02-16T12:04:06;1.70;;;1.60;;
7475;SDS011;3779;49.216;8.650;2024-02-16T12:06:56;1.80;;;1.70;;
7475;SDS011;3779;49.216;8.650;2024-02-16T12:09:42;2.43;;;1.73;;
7475;SDS011;3779;49.216;8.650;2024-02-16T12:12:28;2.17;;;1.70;;
7475;SDS011;3779;49.216;8.650;2024-02-16T12:15:16;2.20;;;1.77;;
7475;SDS011;3779;49.216;8.650;2024-02-16T12:18:04;1.60;;;1.50;;
7475;SDS011;3779;49.216;8.650;2024-02-16T12:20:57;1.67;;;1.57;;
7475;SDS011;3779;49.216;8.650;2024-02-16T12:23:50;1.73;;;1.63;;
7475;SDS011;3779;49.216;8.650;2024-02-16T12:26:53;1.87;;;1.77;;
7475;SDS011;3779;49.216;8.650;2024-02-16T12:29:40;5.27;;;2.20;;
7475;SDS011;3779;49.216;8.650;2024-02-16T13:42:56;4.47;;;1.33;;
7475;SDS011;3779;49.216;8.650;2024-02-16T13:45:47;1.50;;;1.40;;
7475;SDS011;3779;49.216;8.650;2024-02-16T13:48:44;1.67;;;1.50;;
7475;SDS011;3779;49.216;8.650;2024-02-16T13:51:30;1.37;;;1.27;;
7475;SDS011;3779;49.216;8.650;2024-02-16T13:54:33;1.50;;;1.40;;
7475;SDS011;3779;49.216;8.650;2024-02-16T13:57:21;1.00;;;1.00;;
7475;SDS011;3779;49.216;8.650;2024-02-16T14:00:07;1.43;;;1.33;;
7475;SDS011;3779;49.216;8.650;2024-02-16T14:02:57;1.40;;;1.30;;
7475;SDS011;3779;49.216;8.650;2024-02-16T14:05:46;1.53;;;1.43;;
7475;SDS011;3779;49.216;8.650;2024-02-16T14:08:33;1.40;;;1.30;;
7475;SDS011;3779;49.216;8.650;2024-02-16T14:11:19;1.53;;;1.30;;
7475;SDS011;3779;49.216;8.650;2024-02-16T14:14:05;1.93;;;1.60;;
7475;SDS011;3779;49.216;8.650;2024-02-16T14:16:52;1.80;;;1.30;;
7475;SDS011;3779;49.216;8.650;2024-02-16T14:19:39;1.57;;;1.30;;
7475;SDS011;3779;49.216;8.650;2024-02-16T14:22:25;1.40;;;1.30;;
7475;SDS011;3779;49.216;8.650;2024-02-16T14:25:12;1.87;;;1.50;;
7475;SDS011;3779;49.216;8.650;2024-02-16T14:28:00;1.47;;;1.37;;
7475;SDS011;3779;49.216;8.650;2024-02-16T14:30:47;1.40;;;1.30;;
7475;SDS011;3779;49.216;8.650;2024-02-16T14:33:33;2.70;;;1.53;;
7475;SDS011;3779;49.216;8.650;2024-02-16T14:36:19;1.83;;;1.40;;
7475;SDS011;3779;49.216;8.650;2024-02-16T14:39:05;1.77;;;1.67;;
7475;SDS011;3779;49.216;8.650;2024-02-16T14:50:18;2.50;;;1.40;;
7475;SDS011;3779;49.216;8.650;2024-02-16T14:53:04;2.50;;;1.40;;
7475;SDS011;3779;49.216;8.650;2024-02-16T14:55:50;2.10;;;1.40;;
7475;SDS011;3779;49.216;8.650;2024-02-16T14:58:38;1.53;;;1.43;;
7475;SDS011;3779;49.216;8.650;2024-02-16T15:01:29;1.37;;;1.27;;
7475;SDS011;3779;49.216;8.650;2024-02-16T15:04:43;1.37;;;1.23;;
7475;SDS011;3779;49.216;8.650;2024-02-16T15:14:23;1.90;;;1.60;;
7475;SDS011;3779;49.216;8.650;2024-02-16T15:17:11;2.07;;;1.60;;
7475;SDS011;3779;49.216;8.650;2024-02-16T15:19:57;2.63;;;1.60;;
7475;SDS011;3779;49.216;8.650;2024-02-16T15:22:43;2.50;;;1.20;;
7475;SDS011;3779;49.216;8.650;2024-02-16T15:31:07;1.30;;;1.20;;
7475;SDS011;3779;49.216;8.650;2024-02-16T15:40:10;2.87;;;1.33;;
7475;SDS011;3779;49.216;8.650;2024-02-16T15:43:03;1.90;;;1.50;;
7475;SDS011;3779;49.216;8.650;2024-02-16T15:46:15;1.20;;;1.10;;
7475;SDS011;3779;49.216;8.650;2024-02-16T15:49:26;1.10;;;1.10;;
7475;SDS011;3779;49.216;8.650;2024-02-16T16:00:08;1.30;;;1.20;;
7475;SDS011;3779;49.216;8.650;2024-02-16T16:03:38;4.27;;;1.60;;
7475;SDS011;3779;49.216;8.650;2024-02-16T16:06:25;1.47;;;1.33;;
7475;SDS011;3779;49.216;8.650;2024-02-16T16:09:34;1.60;;;1.27;;
7475;SDS011;3779;49.216;8.650;2024-02-16T16:12:46;1.30;;;1.07;;
7475;SDS011;3779;49.216;8.650;2024-02-16T16:16:02;1.43;;;1.30;;
7475;SDS011;3779;49.216;8.650;2024-02-16T16:19:01;2.17;;;1.40;;
7475;SDS011;3779;49.216;8.650;2024-02-16T16:22:46;1.80;;;1.30;;
7475;SDS011;3779;49.216;8.650;2024-02-16T16:25:32;1.90;;;1.60;;
7475;SDS011;3779;49.216;8.650;2024-02-16T16:28:49;2.03;;;1.57;;
7475;SDS011;3779;49.216;8.650;2024-02-16T16:32:01;1.97;;;1.50;;
7475;SDS011;3779;49.216;8.650;2024-02-16T16:34:51;1.33;;;1.23;;
7475;SDS011;3779;49.216;8.650;2024-02-16T16:37:38;1.27;;;1.17;;
7475;SDS011;3779;49.216;8.650;2024-02-16T16:40:46;1.70;;;1.33;;
7475;SDS011;3779;49.216;8.650;2024-02-16T16:43:32;1.73;;;1.50;;
7475;SDS011;3779;49.216;8.650;2024-02-16T16:46:20;2.23;;;1.60;;
7475;SDS011;3779;49.216;8.650;2024-02-16T16:49:07;1.00;;;1.00;;
7475;SDS011;3779;49.216;8.650;2024-02-16T16:51:54;1.53;;;1.13;;
7475;SDS011;3779;49.216;8.650;2024-02-16T16:54:41;1.50;;;1.40;;
7475;SDS011;3779;49.216;8.650;2024-02-16T16:57:31;3.13;;;1.53;;
7475;SDS011;3779;49.216;8.650;2024-02-16T17:00:19;1.30;;;1.20;;
7475;SDS011;3779;49.216;8.650;2024-02-16T17:03:26;2.73;;;1.93;;
7475;SDS011;3779;49.216;8.650;2024-02-16T17:06:23;1.37;;;1.20;;
7475;SDS011;3779;49.216;8.650;2024-02-16T17:12:28;2.60;;;1.60;;
7475;SDS011;3779;49.216;8.650;2024-02-16T17:15:38;1.43;;;1.33;;
7475;SDS011;3779;49.216;8.650;2024-02-16T17:18:29;2.03;;;1.50;;
7475;SDS011;3779;49.216;8.650;2024-02-16T17:21:48;1.20;;;1.10;;
7475;SDS011;3779;49.216;8.650;2024-02-16T17:24:35;1.20;;;1.10;;
7475;SDS011;3779;49.216;8.650;2024-02-16T17:27:23;2.67;;;1.40;;
7475;SDS011;3779;49.216;8.650;2024-02-16T17:30:09;1.47;;;1.17;;
7475;SDS011;3779;49.216;8.650;2024-02-16T17:32:59;2.30;;;1.60;;
7475;SDS011;3779;49.216;8.650;2024-02-16T17:36:15;3.37;;;1.67;;
7475;SDS011;3779;49.216;8.650;2024-02-16T17:40:13;1.60;;;1.50;;
7475;SDS011;3779;49.216;8.650;2024-02-16T17:43:32;1.73;;;1.30;;
7475;SDS011;3779;49.216;8.650;2024-02-16T17:49:28;1.60;;;1.50;;
7475;SDS011;3779;49.216;8.650;2024-02-16T17:55:32;1.33;;;1.23;;
7475;SDS011;3779;49.216;8.650;2024-02-16T18:01:56;1.83;;;1.30;;
7475;SDS011;3779;49.216;8.650;2024-02-16T18:04:43;1.80;;;1.50;;
7475;SDS011;3779;49.216;8.650;2024-02-16T18:07:56;1.97;;;1.30;;
7475;SDS011;3779;49.216;8.650;2024-02-16T18:11:36;2.07;;;1.77;;
7475;SDS011;3779;49.216;8.650;2024-02-16T18:18:54;1.97;;;1.70;;
7475;SDS011;3779;49.216;8.650;2024-02-16T18:22:23;3.10;;;1.60;;
7475;SDS011;3779;49.216;8.650;2024-02-16T18:25:16;1.43;;;1.33;;
7475;SDS011;3779;49.216;8.650;2024-02-16T18:52:33;2.80;;;1.80;;
7475;SDS011;3779;49.216;8.650;2024-02-16T18:55:23;1.37;;;1.20;;
7475;SDS011;3779;49.216;8.650;2024-02-16T18:58:16;1.50;;;1.40;;
7475;SDS011;3779;49.216;8.650;2024-02-16T19:09:45;4.03;;;2.40;;
7475;SDS011;3779;49.216;8.650;2024-02-16T19:12:58;3.63;;;1.90;;
7475;SDS011;3779;49.216;8.650;2024-02-16T19:15:46;5.53;;;2.20;;
7475;SDS011;3779;49.216;8.650;2024-02-16T19:18:33;2.83;;;1.70;;
7475;SDS011;3779;49.216;8.650;2024-02-16T19:21:38;2.97;;;2.10;;
7475;SDS011;3779;49.216;8.650;2024-02-16T19:27:21;2.33;;;1.73;;
7475;SDS011;3779;49.216;8.650;2024-02-16T19:30:08;1.60;;;1.50;;
7475;SDS011;3779;49.216;8.650;2024-02-16T19:32:55;3.57;;;1.90;;
7475;SDS011;3779;49.216;8.650;2024-02-16T20:45:02;1.60;;;1.50;;
7475;SDS011;3779;49.216;8.650;2024-02-16T20:51:06;3.07;;;2.10;;
7475;SDS011;3779;49.216;8.650;2024-02-16T20:53:55;3.90;;;2.20;;
7475;SDS011;3779;49.216;8.650;2024-02-16T20:56:41;3.07;;;2.10;;
7475;SDS011;3779;49.216;8.650;2024-02-16T20:59:29;4.17;;;2.00;;
7475;SDS011;3779;49.216;8.650;2024-02-16T21:02:15;3.07;;;1.67;;
7475;SDS011;3779;49.216;8.650;2024-02-16T21:05:04;2.43;;;1.93;;
7475;SDS011;3779;49.216;8.650;2024-02-16T21:07:50;2.37;;;1.43;;
7475;SDS011;3779;49.216;8.650;2024-02-16T21:10:37;1.80;;;1.60;;
7475;SDS011;3779;49.216;8.650;2024-02-16T21:16:41;3.73;;;2.47;;
7475;SDS011;3779;49.216;8.650;2024-02-16T21:19:33;2.77;;;1.90;;
7475;SDS011;3779;49.216;8.650;2024-02-16T21:22:19;4.23;;;2.40;;
7475;SDS011;3779;49.216;8.650;2024-02-16T21:25:09;3.20;;;2.00;;
7475;SDS011;3779;49.216;8.650;2024-02-16T21:33:34;2.27;;;2.07;;
7475;SDS011;3779;49.216;8.650;2024-02-16T21:36:22;3.37;;;2.60;;
7475;SDS011;3779;49.216;8.650;2024-02-16T21:39:11;1.60;;;1.50;;
7475;SDS011;3779;49.216;8.650;2024-02-16T21:45:32;2.53;;;2.10;;
7475;SDS011;3779;49.216;8.650;2024-02-16T21:51:20;3.37;;;2.53;;
7475;SDS011;3779;49.216;8.650;2024-02-16T21:54:06;2.70;;;2.50;;
7475;SDS011;3779;49.216;8.650;2024-02-16T21:56:52;3.60;;;2.30;;
7475;SDS011;3779;49.216;8.650;2024-02-16T21:59:39;2.13;;;1.93;;
7475;SDS011;3779;49.216;8.650;2024-02-16T22:05:21;3.57;;;2.90;;
7475;SDS011;3779;49.216;8.650;2024-02-16T22:08:08;3.03;;;2.60;;
7475;SDS011;3779;49.216;8.650;2024-02-16T22:10:54;2.37;;;2.17;;
7475;SDS011;3779;49.216;8.650;2024-02-16T22:13:39;4.77;;;3.50;;
7475;SDS011;3779;49.216;8.650;2024-02-16T22:16:29;4.67;;;2.90;;
7475;SDS011;3779;49.216;8.650;2024-02-16T22:19:18;4.70;;;3.10;;
7475;SDS011;3779;49.216;8.650;2024-02-16T22:22:05;1.87;;;1.77;;
7475;SDS011;3779;49.216;8.650;2024-02-16T22:24:52;3.77;;;3.10;;
7475;SDS011;3779;49.216;8.650;2024-02-16T22:33:53;2.73;;;2.20;;
7475;SDS011;3779;49.216;8.650;2024-02-16T22:36:41;4.97;;;3.27;;
7475;SDS011;3779;49.216;8.650;2024-02-16T22:39:25;3.33;;;2.50;;
7475;SDS011;3779;49.216;8.650;2024-02-16T22:48:57;1.70;;;1.27;;
7475;SDS011;3779;49.216;8.650;2024-02-16T22:55:07;3.97;;;3.40;;
7475;SDS011;3779;49.216;8.650;2024-02-16T23:01:09;2.60;;;2.40;;
7475;SDS011;3779;49.216;8.650;2024-02-16T23:03:59;3.63;;;2.93;;
7475;SDS011;3779;49.216;8.650;2024-02-16T23:07:07;3.03;;;2.73;;
7475;SDS011;3779;49.216;8.650;2024-02-16T23:12:53;3.63;;;2.70;;
7475;SDS011;3779;49.216;8.650;2024-02-16T23:15:40;1.90;;;1.70;;
7475;SDS011;3779;49.216;8.650;2024-02-16T23:18:27;4.67;;;2.70;;
7475;SDS011;3779;49.216;8.650;2024-02-16T23:21:14;3.10;;;2.80;;
7475;SDS011;3779;49.216;8.650;2024-02-16T23:24:04;3.23;;;2.93;;
7475;SDS011;3779;49.216;8.650;2024-02-16T23:27:08;2.63;;;2.00;;
7475;SDS011;3779;49.216;8.650;2024-02-16T23:29:58;3.50;;;3.20;;
7475;SDS011;3779;49.216;8.650;2024-02-16T23:35:43;4.03;;;3.30;;
7475;SDS011;3779;49.216;8.650;2024-02-16T23:38:38;4.63;;;3.03;;
